• Join FlightAware (Why Join?)
  • Login
  • US Flag 
12:52AM EDT


 

Airport Tracker/Info


-or-


 

Live Flight TrackerFlight Track Log ✈ CES5527 ✈ 12-May-2013 ✈ ZSSS / SHA - ZHLY / LYA

Flight Track Log - Related Links

Times and Time Zones

All times are in EDT time to prevent confusion due to time zone crossing. See the CES5527 flight status page for this flight to view local times or setup timezone preferences in your user account.

Time Position Orientation Groundspeed Altitude Reporting Facility
EDT Latitude Longitude Course Direction KTS MPH feet Rate Location/Type
07:35AM 31.2480 121.1160 359° North 278 320 10,000  Level FlightAware
07:36AM 31.3210 121.1160 360° North 287 330 10,000  Level FlightAware
07:37AM 31.3610 121.1160 360° North 278 320 10,000 300 Level FlightAware
07:37AM 31.4140 121.1160 360° North 288 331 10,400 1,380 Climbing FlightAware
07:39AM 31.5670 121.0540 341° North 358 412 13,400 1,860 Climbing FlightAware
07:40AM 31.6280 121.0220 336° Northwest 373 429 14,900 1,020 Climbing FlightAware
07:40AM 31.6900 120.9880 335° Northwest 373 429 14,900  Level FlightAware
07:41AM 31.7290 120.9660 334° Northwest 373 429 14,900  Level FlightAware
07:42AM 31.7830 120.9370 335° Northwest 373 429 14,900 1,200 Level FlightAware
07:44AM 31.8557 120.7514 295° West  Level Estimated
07:45AM 31.8925 120.6570 295° West  Level Estimated
07:46AM 31.9293 120.5624 295° West  Level Estimated
07:47AM 31.9660 120.4678 295° West  Level Estimated
07:48AM 32.0026 120.3731 295° West  Level Estimated
07:49AM 32.0392 120.2783 294° West  Level Estimated
07:50AM 32.0756 120.1834 294° West  Level Estimated
07:50AM 32.2240 120.0820 294° West 421 484 25,600  Level FlightAware
07:50AM 32.2330 119.9730 276° West 421 484 25,600  Level FlightAware
07:52AM 32.2410 119.7650 273° West 422 486 25,600  Level FlightAware
07:53AM 32.2230 119.6890 254° West 426 490 25,600  Level FlightAware
07:53AM 32.1960 119.5910 252° West 426 490 25,600  Level FlightAware
07:54AM 32.1740 119.5070 253° West 425 489 25,600  Level FlightAware
07:54AM 32.1530 119.4280 253° West 422 486 25,600  Level FlightAware
07:55AM 32.1370 119.3650 253° West 422 486 25,600  Level FlightAware
07:57AM 32.0780 119.1420 253° West 427 491 25,600  Level FlightAware
07:58AM 32.0220 118.9380 297° West 427 491 25,600  Level FlightAware
07:59AM 32.1537 118.9672 297° West  Level Estimated
07:59AM 32.0010 118.8630 252° West 427 491 25,600  Level FlightAware
08:00AM 31.9800 118.7880 252° West 427 491 25,600  Level FlightAware
08:02AM 32.0571 118.6241 299° West  Level Estimated
08:03AM 32.0998 118.5329 299° West  Level Estimated
08:04AM 32.1424 118.4417 299° West  Level Estimated
08:05AM 32.1850 118.3503 299° West  Level Estimated
08:06AM 32.2276 118.2589 299° West  Level Estimated
08:07AM 32.2700 118.1674 299° West  Level Estimated
08:08AM 32.3124 118.0757 299° West  Level Estimated
08:09AM 32.3548 117.9840 299° West  Level Estimated
08:10AM 32.3970 117.8923 299° West  Level Estimated
08:11AM 32.4392 117.8004 299° West  Level Estimated
08:12AM 32.4813 117.7085 299° West  Level Estimated
08:13AM 32.5234 117.6164 298° West  Level Estimated
08:14AM 32.5654 117.5243 298° West  Level Estimated
08:15AM 32.6073 117.4321 298° West  Level Estimated
08:16AM 32.6492 117.3398 298° West  Level Estimated
08:17AM 32.6910 117.2474 298° West  Level Estimated
08:18AM 32.7327 117.1550 298° West  Level Estimated
08:19AM 32.7744 117.0624 298° West  Level Estimated
08:20AM 32.8160 116.9698 298° West  Level Estimated
08:21AM 32.8575 116.8770 298° West  Level Estimated
08:22AM 32.8989 116.7842 298° West  Level Estimated
08:23AM 32.9403 116.6913 298° West  Level Estimated
08:24AM 32.9816 116.5983 298° West  Level Estimated
08:25AM 33.0229 116.5053 298° West  Level Estimated
08:26AM 33.0641 116.4121 298° West  Level Estimated
08:27AM 33.1052 116.3188 298° West  Level Estimated
08:28AM 33.1462 116.2255 298° West  Level Estimated
08:29AM 33.1872 116.1321 298° West  Level Estimated
08:30AM 33.2281 116.0386 298° West  Level Estimated
08:31AM 33.2689 115.9450 298° West  Level Estimated
08:32AM 33.3097 115.8513 298° West  Level Estimated
08:33AM 33.3504 115.7575 297° West  Level Estimated
08:34AM 33.3910 115.6637 297° West  Level Estimated
08:35AM 33.4315 115.5697 297° West  Level Estimated
08:36AM 33.4720 115.4757 297° West  Level Estimated
08:37AM 33.5124 115.3816 297° West  Level Estimated
08:38AM 33.5527 115.2873 297° West  Level Estimated
08:39AM 33.5930 115.1930 297° West  Level Estimated
08:40AM 33.6332 115.0986 297° West  Level Estimated
08:41AM 33.6733 115.0042 297° West  Level Estimated
08:42AM 33.7134 114.9096 297° West  Level Estimated
08:43AM 33.7533 114.8150 297° West  Level Estimated
08:44AM 33.7932 114.7202 297° West  Level Estimated
08:45AM 33.8331 114.6254 297° West  Level Estimated
08:46AM 33.8728 114.5305 297° West  Level Estimated
08:47AM 33.9125 114.4355 297° West  Level Estimated
08:48AM 33.9521 114.3404 297° West  Level Estimated
08:49AM 33.9917 114.2452 297° West  Level Estimated
08:50AM 34.0311 114.1499 297° West  Level Estimated
08:51AM 34.0705 114.0546 297° West  Level Estimated
08:52AM 34.1098 113.9591 296° West  Level Estimated
08:53AM 34.1491 113.8636 296° West  Level Estimated
08:54AM 34.1882 113.7679 296° West  Level Estimated
08:55AM 34.2273 113.6722 296° West  Level Estimated
08:56AM 34.2664 113.5764 296° West  Level Estimated
08:57AM 34.3053 113.4805 296° West  Level Estimated
08:58AM 34.3442 113.3846 296° West  Level Estimated
08:59AM 34.3830 113.2885 296° West  Level Estimated
09:00AM 34.4217 113.1923 296° West  Level Estimated
09:01AM 34.4603 113.0961 296° West  Level Estimated
09:02AM 34.4989 112.9997 296° West  Level Estimated
09:03AM 34.5374 112.9033 296° West  Level Estimated
09:04AM 34.5758 112.8068 296° West  Level Estimated
09:05AM 34.6142 112.7102 296° West  Level Estimated
09:06AM 34.6541 112.6092 296° West  Level Estimated
09:07AM 34.6940 112.5081 296° West  Level Estimated
09:08AM 34.7338 112.4069 296° West  Level Estimated
09:09AM 34.7411 112.3883 296° West  Level Estimated
09:10AM 34.7411 112.3883 68° East  Level Estimated
09:11AM 34.7411 112.3883 68° East  Level Estimated
09:12AM 34.7411 112.3883 68° East  Level Estimated
09:13AM 34.7411 112.3883 68° East  Level Estimated
09:14AM 34.7411 112.3883 68° East  Level Estimated
09:15AM 34.7411 112.3883 68° East  Level Estimated